This is the latest recevied weather packets stored in our database for station/object LZ1NAG-10. If no packets are shown the sender has not sent any weather packets the latest 10 day(s).
| Time | Temp. | Humidity | Pressure | Rain* | Wind** | Luminosity | Snow |
|---|---|---|---|---|---|---|---|
| 1777635088 | 8.89° C | 52% | 1027.1 hPa | - | - | - | - |
| 1777634188 | 7.78° C | 53% | 1027.2 hPa | - | - | - | - |
| 1777633288 | 7.78° C | 53% | 1027.1 hPa | - | - | - | - |
| 1777632388 | 10° C | 51% | 1027.2 hPa | - | - | - | - |
| 1777631487 | 7.78° C | 52% | 1027.1 hPa | - | - | - | - |
| 1777630587 | 6.67° C | 53% | 1027.2 hPa | - | - | - | - |
| 1777629687 | 7.22° C | 53% | 1027.4 hPa | - | - | - | - |
| 1777628787 | 7.22° C | 53% | 1027.2 hPa | - | - | - | - |
| 1777627887 | 7.22° C | 53% | 1027.5 hPa | - | - | - | - |
| 1777626986 | 6.67° C | 53% | 1027.4 hPa | - | - | - | - |
| 1777626086 | 7.22° C | 53% | 1027.6 hPa | - | - | - | - |
| 1777625185 | 7.22° C | 51% | 1027.5 hPa | - | - | - | - |
| 1777624285 | 6.67° C | 52% | 1027.4 hPa | - | - | - | - |
| 1777623385 | 6.11° C | 52% | 1027.4 hPa | - | - | - | - |
| 1777622485 | 5.56° C | 53% | 1027.4 hPa | - | - | - | - |
| 1777621585 | 5.56° C | 54% | 1027.4 hPa | - | - | - | - |
| 1777620681 | 6.67° C | 52% | 1027 hPa | - | - | - | - |
| 1777619781 | 5° C | 54% | 1027 hPa | - | - | - | - |
| 1777618883 | 10° C | 49% | 1026.8 hPa | - | - | - | - |
| 1777617981 | 11.67° C | 46% | 1027.1 hPa | - | - | - | - |
| 1777617081 | 7.22° C | 50% | 1026.5 hPa | - | - | - | - |
| 1777616181 | 4.44° C | 54% | 1026.9 hPa | - | - | - | - |
| 1777615281 | 7.78° C | 50% | 1026.4 hPa | - | - | - | - |
| 1777614380 | 11.11° C | 45% | 1027.1 hPa | - | - | - | - |
| 1777613480 | 2.78° C | 54% | 1027 hPa | - | - | - | - |
* Rain since midnight (hover to see other rain measurements)
** Current wind speed in m/s (hover to see current wind gust speed)